createdAt,value
2023-05-13T04:46:58.861Z,4.00
2023-05-13T04:52:02.793Z,3.67
2023-05-13T04:57:06.322Z,3.53
2023-05-13T05:02:09.103Z,3.80
2023-05-13T05:07:11.830Z,3.37
2023-05-13T05:12:14.743Z,3.30
2023-05-13T05:17:17.576Z,3.17
2023-05-13T05:22:20.569Z,3.00
2023-05-13T05:27:23.352Z,2.80
2023-05-13T05:32:26.196Z,2.77
2023-05-13T05:37:30.333Z,3.30
2023-05-13T05:42:33.177Z,3.37
2023-05-13T05:47:35.999Z,3.23
2023-05-13T05:52:38.787Z,2.80
2023-05-13T05:57:41.531Z,2.73
2023-05-13T06:02:44.463Z,2.70
2023-05-13T06:07:47.375Z,3.07
2023-05-13T06:12:51.338Z,2.67
2023-05-13T06:17:54.210Z,2.67
2023-05-13T06:22:56.992Z,2.60
2023-05-13T06:28:01.546Z,2.60
2023-05-13T06:33:06.035Z,3.20
2023-05-13T06:38:08.939Z,2.70
2023-05-13T06:43:16.414Z,2.20
2023-05-13T06:48:19.266Z,2.00
2023-05-13T06:53:22.041Z,2.70
2023-05-13T06:58:24.741Z,2.77
2023-05-13T07:03:27.695Z,2.37
2023-05-13T07:08:30.654Z,1.93
2023-05-13T07:13:33.532Z,1.83
2023-05-13T07:18:36.434Z,1.67
2023-05-13T07:23:39.210Z,1.73
2023-05-13T07:28:42.015Z,1.60
2023-05-13T07:33:44.734Z,1.70
2023-05-13T07:38:47.560Z,1.67
2023-05-13T07:43:50.439Z,1.23
2023-05-13T07:48:53.257Z,2.03
2023-05-13T07:53:57.054Z,2.13
2023-05-13T07:58:59.796Z,1.73
2023-05-13T08:04:02.777Z,1.77
2023-05-13T08:09:06.457Z,1.87
2023-05-13T08:14:09.227Z,1.27
2023-05-13T08:19:14.258Z,1.57
2023-05-13T08:24:17.441Z,1.60
2023-05-13T08:29:20.253Z,2.00
2023-05-13T08:34:23.016Z,1.70
2023-05-13T08:39:25.910Z,1.37
2023-05-13T08:44:29.834Z,1.77
2023-05-13T08:49:33.321Z,1.70
2023-05-13T08:54:36.294Z,1.60
2023-05-13T08:59:39.094Z,1.70
2023-05-13T09:04:42.378Z,1.60
2023-05-13T09:09:46.100Z,1.40
2023-05-13T09:14:48.850Z,1.30
2023-05-13T09:19:51.772Z,1.70
2023-05-13T09:24:55.637Z,1.57
2023-05-13T09:30:01.445Z,1.53
2023-05-13T09:35:18.496Z,1.57
2023-05-13T09:40:21.675Z,1.40
2023-05-13T09:45:25.019Z,1.63
2023-05-13T09:50:28.204Z,1.60
2023-05-13T09:55:32.093Z,1.50
2023-05-13T10:00:36.671Z,1.97
2023-05-13T10:05:41.742Z,1.70
2023-05-13T10:10:45.967Z,1.50
2023-05-13T10:15:51.133Z,1.13
2023-05-13T10:20:54.301Z,1.40
2023-05-13T10:26:00.206Z,1.50
2023-05-13T10:31:03.062Z,1.37
2023-05-13T10:36:42.010Z,1.50
2023-05-13T10:42:02.912Z,1.73
2023-05-13T10:47:05.708Z,1.60
2023-05-13T10:52:12.825Z,1.88
2023-05-13T10:57:20.552Z,1.70
2023-05-13T11:02:24.403Z,1.90
2023-05-13T11:07:30.297Z,1.80
2023-05-13T11:12:33.133Z,2.03
2023-05-13T11:17:37.829Z,2.30
2023-05-13T11:22:42.304Z,1.63
2023-05-13T11:27:47.330Z,1.97
2023-05-13T11:32:57.016Z,1.87
2023-05-13T11:38:02.586Z,1.90
2023-05-13T11:43:05.787Z,1.75
2023-05-13T11:48:22.314Z,1.80
2023-05-13T11:53:25.187Z,1.90
2023-05-13T11:58:27.944Z,1.50
2023-05-13T12:03:31.137Z,1.63
2023-05-13T12:08:34.130Z,1.85
2023-05-13T12:13:36.976Z,1.80
2023-05-13T12:18:39.774Z,1.98
2023-05-13T12:23:42.547Z,1.70
2023-05-13T12:28:45.353Z,1.90
2023-05-13T12:33:49.431Z,1.67
2023-05-13T12:39:00.968Z,2.47
2023-05-13T12:44:07.883Z,1.95
2023-05-13T12:49:12.093Z,1.87
2023-05-13T12:54:15.076Z,1.90
2023-05-13T12:59:19.312Z,1.67
2023-05-13T13:04:25.069Z,2.03
2023-05-13T13:09:28.547Z,1.30
2023-05-13T13:14:31.648Z,1.20
2023-05-13T13:19:34.610Z,1.70
2023-05-13T13:24:37.947Z,1.30
2023-05-13T13:29:40.722Z,1.75
2023-05-13T13:34:43.463Z,1.63
2023-05-13T13:39:46.223Z,1.60
2023-05-13T13:44:49.237Z,1.70
2023-05-13T13:49:52.333Z,1.75
2023-05-13T13:54:55.776Z,1.55
2023-05-13T13:59:59.149Z,1.85
2023-05-13T14:05:02.189Z,1.70
2023-05-13T14:10:06.433Z,1.80
2023-05-13T14:15:09.714Z,1.57
2023-05-13T14:20:12.644Z,1.60
2023-05-13T14:25:15.616Z,2.17
2023-05-13T14:30:18.461Z,1.90
2023-05-13T14:35:21.341Z,1.50
2023-05-13T14:40:24.419Z,1.33
2023-05-13T14:45:27.424Z,1.70
2023-05-13T14:50:30.172Z,1.60
2023-05-13T14:55:33.062Z,1.93
2023-05-13T15:00:37.781Z,2.13
2023-05-13T15:05:43.867Z,3.15
2023-05-13T15:10:47.016Z,2.80
2023-05-13T15:15:49.997Z,2.00
2023-05-13T15:20:52.803Z,1.40
2023-05-13T15:25:55.571Z,1.77
2023-05-13T15:30:58.413Z,1.30
2023-05-13T15:36:01.413Z,1.87
2023-05-13T15:41:04.530Z,1.63
2023-05-13T15:46:07.517Z,1.70
2023-05-13T15:51:10.474Z,2.03
2023-05-13T15:56:13.359Z,1.50
2023-05-13T16:01:16.164Z,2.00
2023-05-13T16:06:19.048Z,1.67
2023-05-13T16:11:21.890Z,1.50
2023-05-13T16:16:24.800Z,1.50
2023-05-13T16:21:27.607Z,1.53
2023-05-13T16:26:30.429Z,1.60
2023-05-13T16:31:33.458Z,1.70
2023-05-13T16:36:36.282Z,1.80
2023-05-13T16:41:39.130Z,2.00
2023-05-13T16:46:41.953Z,1.90
2023-05-13T16:51:44.706Z,2.30
2023-05-13T16:56:47.577Z,1.90
2023-05-13T17:01:51.360Z,1.93
2023-05-13T17:06:55.703Z,2.10
2023-05-13T17:11:59.654Z,2.20
2023-05-13T17:17:03.173Z,2.33
2023-05-13T17:22:06.272Z,1.60
2023-05-13T17:27:09.303Z,1.67
2023-05-13T17:32:12.171Z,1.90
2023-05-13T17:37:14.970Z,1.70
2023-05-13T17:42:17.996Z,2.00
2023-05-13T17:47:22.061Z,1.90
2023-05-13T17:52:24.850Z,2.10
2023-05-13T17:57:27.971Z,2.07
2023-05-13T18:02:30.898Z,2.70
2023-05-13T18:07:33.790Z,2.53
2023-05-13T18:12:36.650Z,2.40
2023-05-13T18:17:39.422Z,2.30
2023-05-13T18:22:45.660Z,2.53
2023-05-13T18:27:54.962Z,2.43
2023-05-13T18:33:08.204Z,2.17
2023-05-13T18:38:31.917Z,2.57
2023-05-13T18:43:34.926Z,2.60
2023-05-13T18:48:37.886Z,3.17
2023-05-13T18:53:40.844Z,2.50
2023-05-13T18:58:46.070Z,2.80
2023-05-13T19:03:49.070Z,3.03
2023-05-13T19:08:52.299Z,2.80
2023-05-13T19:13:55.273Z,3.00
2023-05-13T19:18:58.144Z,2.50
2023-05-13T19:24:03.373Z,3.20
2023-05-13T19:29:06.657Z,2.73
2023-05-13T19:34:09.931Z,3.20
2023-05-13T19:39:12.936Z,2.80
2023-05-13T19:44:15.856Z,3.00
2023-05-13T19:49:18.823Z,3.03
2023-05-13T19:54:22.238Z,3.77
2023-05-13T19:59:25.047Z,3.63
2023-05-13T20:04:28.686Z,3.60
2023-05-13T20:09:31.671Z,2.97
2023-05-13T20:14:45.548Z,3.80
2023-05-13T20:19:49.437Z,3.40
2023-05-13T20:24:54.338Z,3.70
2023-05-13T20:30:01.974Z,3.67
2023-05-13T20:35:05.123Z,3.30
2023-05-13T20:40:08.568Z,3.50
2023-05-13T20:45:11.865Z,4.53
2023-05-13T20:50:14.789Z,5.70
2023-05-13T20:55:17.856Z,6.53
2023-05-13T21:00:20.965Z,5.87
2023-05-13T21:05:24.184Z,4.77
2023-05-13T21:10:27.127Z,4.40
2023-05-13T21:15:29.987Z,3.73
2023-05-13T21:20:32.790Z,3.77
2023-05-13T21:25:35.622Z,3.43
2023-05-13T21:30:38.404Z,3.67
2023-05-13T21:35:41.169Z,3.60
2023-05-13T21:40:44.172Z,3.00
2023-05-13T21:45:48.719Z,3.50
2023-05-13T21:50:51.513Z,3.33
2023-05-13T21:55:56.564Z,3.47
2023-05-13T22:01:00.387Z,3.80
2023-05-13T22:06:03.704Z,3.33
2023-05-13T22:11:07.311Z,4.97
2023-05-13T22:16:10.321Z,4.07
2023-05-13T22:21:13.221Z,3.90
2023-05-13T22:26:16.159Z,3.43
2023-05-13T22:31:19.111Z,4.23
2023-05-13T22:36:21.976Z,4.20
2023-05-13T22:41:26.335Z,4.00
2023-05-13T22:46:29.271Z,4.07
2023-05-13T22:51:32.165Z,4.30
2023-05-13T22:56:34.932Z,3.70
2023-05-13T23:01:37.775Z,4.40
2023-05-13T23:06:40.566Z,4.30
2023-05-13T23:11:43.325Z,4.07
2023-05-13T23:16:46.191Z,3.93
2023-05-13T23:21:48.964Z,4.93
2023-05-13T23:26:51.753Z,4.30
2023-05-13T23:31:55.435Z,4.77
2023-05-13T23:36:58.376Z,5.40
2023-05-13T23:42:01.141Z,5.20
